Messages - map view · info · telemetry · weather · raw · status · beacons · messages · bulletins · browse · moving · my account
Callsign:
Show:

Loading message packets...

APRS messages are stored for 14 days. It is possible to search using wildcards (*?) after a prefix.

2020-10-20 04:50:11 EDT: SOTA>OE5REO-7: Dupe: OE5REO/P on OE/ST-403 7.178 SSB
2020-10-20 04:50:11 EDT: JN1DFF-1>FX25INFO: JN1DFF-2 cnt=557 ax=557 FCS_err=0 RS_dec=0 len=232 RS=255,239 e_sym=0
2020-10-20 04:50:38 EDT: CNTFDL>BOMCNT: Central Fire Danger Rating: LOW-MODERATE
2020-10-20 04:50:38 EDT: NCYFDL>BOMNCY: Northern Country Fire Danger Rating: LOW-MODERATE
2020-10-20 04:50:39 EDT: NCLFDL>BOMNCL: North Central Fire Danger Rating: LOW-MODERATE
2020-10-20 04:50:39 EDT: WIMFDL>BOMWIM: Wimmera Fire Danger Rating: LOW-MODERATE
2020-10-20 04:50:39 EDT: EGLFDL>BOMEGL: East Gippsland Fire Danger Rating: LOW-MODERATE
2020-10-20 04:50:39 EDT: NTEFDL>BOMNTE: North East Fire Danger Rating: LOW-MODERATE
2020-10-20 04:50:40 EDT: WSGFDL>BOMWSG: West and South Gippsland Fire Danger Rating: LOW-MODERATE
2020-10-20 04:50:40 EDT: MALFDL>BOMMAL: Mallee Fire Danger Rating: LOW-MODERATE
2020-10-20 04:50:40 EDT: WSTFDL>BOMWST: South West Fire Danger Rating: LOW-MODERATE
2020-10-20 04:50:42 EDT: JN1DFF-1>FX25INFO: JN1DFF-2 cnt=558 ax=558 FCS_err=0 RS_dec=0 len=232 RS=255,239 e_sym=0
2020-10-20 04:51:11 EDT: JN1DFF-1>FX25INFO: JN1DFF-2 cnt=559 ax=559 FCS_err=0 RS_dec=0 len=232 RS=255,239 e_sym=0
2020-10-20 04:51:13 EDT: IK5JRZ>G6JVY-9: qsl?
2020-10-20 04:51:42 EDT: JN1DFF-1>FX25INFO: JN1DFF-2 cnt=560 ax=560 FCS_err=0 RS_dec=0 len=232 RS=255,239 e_sym=0
2020-10-20 04:51:47 EDT: SHLBTP>SHLBTP: Info - Cabinet Temp = 61.1F Vcc = 13.6V
2020-10-20 04:52:10 EDT: K6NLC-5>K6NLC-5: DATA. 73.7
2020-10-20 04:52:11 EDT: JN1DFF-1>FX25INFO: JN1DFF-2 cnt=561 ax=561 FCS_err=0 RS_dec=0 len=232 RS=255,239 e_sym=0
2020-10-20 04:52:41 EDT: JN1DFF-1>FX25INFO: JN1DFF-2 cnt=562 ax=562 FCS_err=0 RS_dec=0 len=232 RS=255,239 e_sym=0
2020-10-20 04:53:10 EDT: UR5YBM-14>UR5YBM-7: UR4UOA-12(0m) -> Kyiv(114m)[50.50, 30.50] dist 2km at 35km/h
2020-10-20 04:53:11 EDT: UR5YBM-14>UR5YBM-9: UR4UOA-12(0m) -> kyiv(114m)[50.50, 30.50] dist 2km at 35km/h
2020-10-20 04:53:11 EDT: JN1DFF-1>FX25INFO: JN1DFF-2 cnt=563 ax=563 FCS_err=0 RS_dec=0 len=232 RS=255,239 e_sym=0
2020-10-20 04:53:41 EDT: JN1DFF-1>FX25INFO: JN1DFF-2 cnt=564 ax=564 FCS_err=0 RS_dec=0 len=232 RS=255,239 e_sym=0
2020-10-20 04:54:11 EDT: JN1DFF-1>FX25INFO: JN1DFF-2 cnt=565 ax=565 FCS_err=0 RS_dec=0 len=232 RS=255,239 e_sym=0
2020-10-20 04:54:40 EDT: UR5YBM-14>UR5YBM-7: UR4UOA-12(0m) -> Kyiv(114m)[50.50, 30.50] dist 2km at 35km/h
2020-10-20 04:54:41 EDT: UR5YBM-14>UR5YBM-9: UR4UOA-12(0m) -> kyiv(114m)[50.50, 30.50] dist 2km at 35km/h
2020-10-20 04:54:41 EDT: JN1DFF-1>FX25INFO: JN1DFF-2 cnt=566 ax=566 FCS_err=0 RS_dec=0 len=232 RS=255,239 e_sym=0
2020-10-20 04:54:57 EDT: OE1ACM-32>OE1ACM-29: No GPS-Fix Batt=4.26V
2020-10-20 04:55:05 EDT: ON4BN>NA1SS: QSL and 73 via ISS - op:Jurgen
2020-10-20 04:55:11 EDT: JN1DFF-1>FX25INFO: JN1DFF-2 cnt=567 ax=567 FCS_err=0 RS_dec=0 len=232 RS=255,239 e_sym=0
2020-10-20 04:55:41 EDT: JN1DFF-1>FX25INFO: JN1DFF-2 cnt=568 ax=568 FCS_err=0 RS_dec=0 len=232 RS=255,239 e_sym=0
2020-10-20 04:55:54 EDT: SA0BSV>ON4IBM: Hello from Sweden
2020-10-20 04:55:55 EDT: YU0XPI-1>APRSMAIL: yu1ttn@gmail.com Starting APRS node
2020-10-20 04:55:56 EDT: IK6GZM>ON4BN: QSL?
2020-10-20 04:56:04 EDT: DB0SOB>DJ2RF-7: Test Nachricht Power Failure-Digipeater behoben
2020-10-20 04:56:11 EDT: JN1DFF-1>FX25INFO: JN1DFF-2 cnt=569 ax=569 FCS_err=0 RS_dec=0 len=232 RS=255,239 e_sym=0
2020-10-20 04:56:26 EDT: SA0BSV>ON4IBM: QSL
2020-10-20 04:56:31 EDT: IK5JRZ>IK6GZM: 73 qsl
2020-10-20 04:56:41 EDT: JN1DFF-1>FX25INFO: JN1DFF-2 cnt=570 ax=570 FCS_err=0 RS_dec=0 len=232 RS=255,239 e_sym=0
2020-10-20 04:56:49 EDT: IK6GZM>IK5JRZ: 73 QSL via LOTW!
2020-10-20 04:57:11 EDT: JN1DFF-1>FX25INFO: JN1DFF-2 cnt=571 ax=571 FCS_err=0 RS_dec=0 len=232 RS=255,239 e_sym=0
2020-10-20 04:57:24 EDT: MTHOOD>N7QME: temps 63.400 97.000 67.900 70.300
2020-10-20 04:57:38 EDT: EUCMWW>BOM_CANCL: 211600z,WIND,WA_MW014
2020-10-20 04:57:38 EDT: EUCMWW>BOMEUC: Cancellation of Wind Warning for coastal waters between
2020-10-20 04:57:38 EDT: EUCMWW>BOMEUC: Israelite Bay and WA-SA Border for Wednesday
2020-10-20 04:57:41 EDT: JN1DFF-1>FX25INFO: JN1DFF-2 cnt=572 ax=572 FCS_err=0 RS_dec=0 len=232 RS=255,239 e_sym=0
2020-10-20 04:57:47 EDT: G0RSQ>G4FKH: A,-99.8,-106.1,-107.4,B,-99.1,-103.9,-105.3,C,-97.3,-108.3,-109.4,D,-102,-103.9,-104.8,E,-104,-109.2,-110.8
2020-10-20 04:58:11 EDT: JN1DFF-1>FX25INFO: JN1DFF-2 cnt=573 ax=573 FCS_err=0 RS_dec=0 len=232 RS=255,239 e_sym=0
2020-10-20 04:58:15 EDT: N7QME-2>N7QME: hum g 72 v 70. o 46. e 71 f 53. b .69 w 74 h 66 Low 1 2 3 4 5 6 8
2020-10-20 04:58:42 EDT: JN1DFF-1>FX25INFO: JN1DFF-2 cnt=574 ax=574 FCS_err=0 RS_dec=0 len=232 RS=255,239 e_sym=0
< previous
User guide · FAQ · Blog · Discussion group · Linking to aprs.fi · AIS sites · Service status · Database statistics · Advertising on aprs.fi · Technical details · API · Change log · Planned changes · Credits and thanks · Terms Of Service · iPhone/iPad APRS